createdAt,value
2022-12-01T00:00:59.672Z,7.00
2022-12-01T00:03:48.989Z,7.00
2022-12-01T00:06:37.662Z,7.00
2022-12-01T00:09:43.067Z,7.00
2022-12-01T00:12:31.239Z,7.00
2022-12-01T00:15:19.103Z,7.00
2022-12-01T00:18:07.034Z,6.90
2022-12-01T00:20:56.274Z,6.90
2022-12-01T00:23:44.273Z,7.00
2022-12-01T00:26:32.090Z,7.00
2022-12-01T00:29:19.976Z,6.90
2022-12-01T00:32:07.947Z,6.90
2022-12-01T00:34:55.955Z,6.90
2022-12-01T00:37:45.269Z,6.90
2022-12-01T00:40:33.154Z,6.90
2022-12-01T00:43:21.055Z,6.90
2022-12-01T00:46:08.988Z,6.80
2022-12-01T00:48:56.921Z,6.90
2022-12-01T00:51:44.844Z,6.90
2022-12-01T00:54:34.217Z,6.90
2022-12-01T00:57:22.170Z,6.80
2022-12-01T01:00:10.912Z,6.90
2022-12-01T01:02:58.782Z,6.90
2022-12-01T01:05:46.651Z,6.80
2022-12-01T01:08:34.552Z,6.80
2022-12-01T01:11:23.792Z,6.80
2022-12-01T01:14:11.679Z,6.80
2022-12-01T01:16:59.591Z,6.80
2022-12-01T01:19:47.775Z,6.80
2022-12-01T01:22:35.949Z,6.80
2022-12-01T01:25:23.903Z,6.80
2022-12-01T01:28:13.190Z,6.80
2022-12-01T01:31:01.093Z,6.80
2022-12-01T01:33:49.347Z,6.80
2022-12-01T01:36:37.220Z,6.80
2022-12-01T01:39:25.184Z,6.80
2022-12-01T01:42:13.785Z,6.80
2022-12-01T01:45:03.108Z,6.80
2022-12-01T01:47:52.964Z,6.70
2022-12-01T01:50:40.889Z,6.70
2022-12-01T01:53:28.978Z,6.70
2022-12-01T01:56:17.057Z,6.70
2022-12-01T01:59:05.207Z,6.70
2022-12-01T02:01:58.108Z,6.60
2022-12-01T02:04:47.642Z,6.60
2022-12-01T02:07:35.587Z,6.60
2022-12-01T02:10:25.306Z,6.60
2022-12-01T02:13:17.087Z,6.70
2022-12-01T02:16:10.878Z,6.70
2022-12-01T02:19:03.176Z,6.70
2022-12-01T02:21:57.143Z,6.60
2022-12-01T02:25:03.015Z,6.60
2022-12-01T02:28:12.205Z,6.70
2022-12-01T02:31:02.349Z,6.70
2022-12-01T02:33:52.505Z,6.70
2022-12-01T02:36:46.401Z,6.70
2022-12-01T02:39:35.897Z,6.70
2022-12-01T02:42:40.116Z,6.70
2022-12-01T02:45:32.479Z,6.60
2022-12-01T02:48:23.796Z,6.60
2022-12-01T02:51:13.385Z,6.60
2022-12-01T02:54:02.760Z,6.60
2022-12-01T02:56:52.820Z,6.60
2022-12-01T02:59:42.433Z,6.60
2022-12-01T03:02:41.976Z,6.60
2022-12-01T03:05:39.066Z,6.60
2022-12-01T03:08:33.774Z,6.50
2022-12-01T03:11:29.438Z,6.50
2022-12-01T03:14:21.780Z,6.50
2022-12-01T03:17:12.186Z,6.50
2022-12-01T03:20:02.453Z,6.50
2022-12-01T03:22:52.980Z,6.50
2022-12-01T03:25:42.937Z,6.50
2022-12-01T03:28:34.224Z,6.40
2022-12-01T03:31:25.149Z,6.40
2022-12-01T03:34:15.913Z,6.40
2022-12-01T03:37:05.959Z,6.40
2022-12-01T03:40:00.237Z,6.50
2022-12-01T03:42:50.932Z,6.40
2022-12-01T03:45:42.970Z,6.40
2022-12-01T03:48:31.543Z,6.40
2022-12-01T03:51:22.229Z,6.40
2022-12-01T03:54:13.450Z,6.40
2022-12-01T03:57:05.165Z,6.40
2022-12-01T03:59:53.290Z,6.40
2022-12-01T04:02:41.628Z,6.40
2022-12-01T04:05:29.627Z,6.50
2022-12-01T04:08:17.607Z,6.50
2022-12-01T04:11:31.124Z,6.30
2022-12-01T04:14:21.115Z,6.50
2022-12-01T04:17:08.951Z,6.40
2022-12-01T04:19:57.093Z,6.40
2022-12-01T04:22:44.974Z,6.40
2022-12-01T04:25:32.879Z,6.40
2022-12-01T04:28:20.765Z,6.40
2022-12-01T04:31:10.096Z,6.40
2022-12-01T04:33:58.449Z,6.40
2022-12-01T04:36:46.274Z,6.40
2022-12-01T04:39:34.201Z,6.40
2022-12-01T04:42:22.035Z,6.30
2022-12-01T04:45:10.818Z,6.30
2022-12-01T04:48:00.273Z,6.40
2022-12-01T04:50:49.974Z,6.30
2022-12-01T04:53:37.999Z,6.30
2022-12-01T04:56:25.947Z,6.30
2022-12-01T04:59:13.898Z,6.30
2022-12-01T05:02:02.732Z,6.30
2022-12-01T05:04:52.046Z,6.30
2022-12-01T05:07:40.004Z,6.30
2022-12-01T05:10:27.989Z,6.30
2022-12-01T05:13:15.816Z,6.20
2022-12-01T05:16:09.976Z,6.30
2022-12-01T05:19:12.848Z,6.20
2022-12-01T05:22:02.079Z,6.20
2022-12-01T05:24:49.972Z,6.20
2022-12-01T05:27:37.785Z,6.20
2022-12-01T05:30:28.710Z,6.30
2022-12-01T05:33:17.634Z,6.20
2022-12-01T05:36:05.845Z,6.20
2022-12-01T05:38:55.446Z,6.20
2022-12-01T05:41:43.341Z,6.20
2022-12-01T05:44:31.438Z,6.20
2022-12-01T05:47:21.335Z,6.20
2022-12-01T05:50:09.894Z,6.10
2022-12-01T05:52:58.006Z,6.10
2022-12-01T05:55:47.264Z,6.10
2022-12-01T05:58:35.174Z,6.10
2022-12-01T06:01:23.150Z,6.10
2022-12-01T06:04:11.046Z,6.10
2022-12-01T06:06:59.175Z,6.10
2022-12-01T06:09:47.670Z,6.10
2022-12-01T06:12:37.233Z,6.10
2022-12-01T06:15:25.150Z,6.10
2022-12-01T06:18:13.088Z,6.00
2022-12-01T06:21:01.044Z,6.00
2022-12-01T06:23:48.898Z,6.00
2022-12-01T06:26:36.835Z,6.00
2022-12-01T06:29:26.198Z,6.00
2022-12-01T06:32:14.044Z,6.00
2022-12-01T06:35:01.906Z,6.00
2022-12-01T06:37:49.823Z,5.90
2022-12-01T06:40:37.779Z,5.90
2022-12-01T06:43:25.621Z,6.00
2022-12-01T06:46:15.016Z,6.00
2022-12-01T06:49:02.947Z,6.00
2022-12-01T06:51:50.998Z,6.00
2022-12-01T06:54:39.724Z,6.00
2022-12-01T06:57:27.833Z,6.00
2022-12-01T07:00:16.716Z,6.00
2022-12-01T07:03:06.354Z,5.90
2022-12-01T07:05:58.623Z,5.90
2022-12-01T07:08:46.539Z,5.90
2022-12-01T07:11:36.470Z,5.90
2022-12-01T07:14:26.767Z,5.90
2022-12-01T07:17:14.864Z,5.90
2022-12-01T07:20:04.300Z,5.90
2022-12-01T07:22:52.488Z,5.80
2022-12-01T07:25:40.345Z,5.90
2022-12-01T07:28:28.441Z,5.90
2022-12-01T07:31:17.158Z,5.90
2022-12-01T07:34:05.519Z,6.00
2022-12-01T07:36:54.771Z,5.90
2022-12-01T07:39:42.656Z,6.00
2022-12-01T07:42:30.537Z,6.00
2022-12-01T07:45:18.495Z,5.90
2022-12-01T07:48:06.607Z,6.00
2022-12-01T07:50:56.382Z,6.00
2022-12-01T07:53:45.802Z,5.90
2022-12-01T07:56:34.073Z,5.90
2022-12-01T07:59:21.978Z,5.90
2022-12-01T08:02:10.432Z,5.90
2022-12-01T08:04:58.494Z,5.90
2022-12-01T08:07:46.407Z,5.90
2022-12-01T08:10:35.972Z,5.90
2022-12-01T08:13:23.986Z,5.90
2022-12-01T08:16:13.493Z,6.00
2022-12-01T08:19:01.410Z,6.00
2022-12-01T08:21:49.276Z,6.00
2022-12-01T08:24:37.148Z,6.00
2022-12-01T08:27:26.464Z,5.90
2022-12-01T08:30:15.107Z,5.90
2022-12-01T08:33:03.016Z,5.90
2022-12-01T08:35:50.938Z,6.00
2022-12-01T08:38:38.834Z,6.00
2022-12-01T08:41:26.904Z,6.00
2022-12-01T08:44:16.256Z,6.00
2022-12-01T08:47:04.195Z,6.00
2022-12-01T08:49:52.123Z,6.00
2022-12-01T08:52:40.020Z,6.00
2022-12-01T08:55:27.935Z,5.90
2022-12-01T08:58:15.791Z,5.90
2022-12-01T09:01:07.712Z,5.80
2022-12-01T09:04:06.714Z,5.80
2022-12-01T09:06:55.554Z,5.90
2022-12-01T09:09:43.730Z,5.80
2022-12-01T09:12:31.664Z,5.80
2022-12-01T09:15:19.735Z,5.90
2022-12-01T09:18:09.102Z,5.90
2022-12-01T09:20:57.031Z,5.90
2022-12-01T09:23:45.060Z,5.90
2022-12-01T09:26:33.294Z,6.00
2022-12-01T09:29:21.116Z,6.00
2022-12-01T09:32:09.040Z,6.10
2022-12-01T09:34:58.265Z,6.10
2022-12-01T09:37:46.153Z,6.10
2022-12-01T09:40:36.531Z,6.00
2022-12-01T09:43:26.309Z,6.00
2022-12-01T09:46:16.877Z,6.00
2022-12-01T09:49:05.567Z,6.00
2022-12-01T09:51:55.492Z,6.00
2022-12-01T09:54:43.834Z,6.00
2022-12-01T09:57:32.968Z,6.00
2022-12-01T10:00:22.898Z,5.90
2022-12-01T10:03:16.857Z,6.00
2022-12-01T10:09:20.046Z,6.00
2022-12-01T10:12:15.315Z,6.00
2022-12-01T10:15:14.867Z,6.00
2022-12-01T10:18:15.767Z,6.00
2022-12-01T10:21:08.488Z,6.10
2022-12-01T10:24:12.571Z,6.10
2022-12-01T10:27:09.213Z,6.10
2022-12-01T10:30:01.526Z,6.10
2022-12-01T10:32:53.111Z,6.10
2022-12-01T10:35:41.770Z,6.00
2022-12-01T10:38:31.270Z,5.80
2022-12-01T10:41:19.937Z,6.00
2022-12-01T10:44:09.954Z,5.90
2022-12-01T10:46:58.127Z,5.90
2022-12-01T10:49:45.960Z,5.80
2022-12-01T10:52:35.909Z,5.80
2022-12-01T10:55:28.042Z,5.80
2022-12-01T10:58:18.020Z,5.80
2022-12-01T11:01:07.807Z,5.80
2022-12-01T11:03:57.033Z,5.80
2022-12-01T11:06:49.755Z,5.80
2022-12-01T11:09:37.653Z,5.80
2022-12-01T11:12:26.019Z,5.80
2022-12-01T11:15:22.231Z,5.90
2022-12-01T11:18:23.458Z,5.90
2022-12-01T11:21:13.418Z,5.90
2022-12-01T11:24:01.361Z,5.80
2022-12-01T11:26:49.325Z,5.80
2022-12-01T11:29:38.267Z,5.80
2022-12-01T11:32:27.380Z,5.80
2022-12-01T11:35:18.792Z,5.80
2022-12-01T11:38:29.387Z,5.70
2022-12-01T11:41:25.257Z,5.80
2022-12-01T11:47:27.242Z,5.80
2022-12-01T11:50:26.166Z,5.80
2022-12-01T11:53:27.496Z,5.80
2022-12-01T11:56:17.255Z,5.80
2022-12-01T11:59:06.668Z,5.70
2022-12-01T12:02:00.686Z,5.80
2022-12-01T12:04:59.536Z,5.80
2022-12-01T12:07:51.742Z,5.80
2022-12-01T12:10:45.606Z,5.80
2022-12-01T12:13:51.680Z,5.70
2022-12-01T12:16:48.281Z,5.80
2022-12-01T12:20:07.091Z,5.70
2022-12-01T12:23:00.628Z,5.60
2022-12-01T12:25:55.409Z,5.60
2022-12-01T12:29:13.488Z,5.70
2022-12-01T12:32:08.982Z,5.70
2022-12-01T12:35:00.120Z,5.70
2022-12-01T12:37:55.748Z,5.70
2022-12-01T12:40:50.587Z,5.70
2022-12-01T12:43:43.799Z,5.70
2022-12-01T12:46:35.275Z,5.70
2022-12-01T12:49:31.897Z,5.70
2022-12-01T12:52:24.549Z,5.70
2022-12-01T12:55:15.650Z,5.70
2022-12-01T12:58:11.079Z,5.70
2022-12-01T13:01:03.118Z,5.60
2022-12-01T13:03:56.842Z,5.60
2022-12-01T13:06:49.819Z,5.60
2022-12-01T13:09:40.406Z,5.60
2022-12-01T13:12:31.284Z,5.60
2022-12-01T13:15:21.848Z,5.50
2022-12-01T13:18:13.849Z,5.50
2022-12-01T13:21:03.817Z,5.50
2022-12-01T13:23:52.895Z,5.50
2022-12-01T13:26:43.318Z,5.50
2022-12-01T13:29:38.406Z,5.50
2022-12-01T13:32:34.741Z,5.50
2022-12-01T13:35:23.973Z,5.50
2022-12-01T13:38:30.881Z,5.50
2022-12-01T13:41:24.222Z,5.40
2022-12-01T13:44:22.172Z,5.30
2022-12-01T13:47:31.020Z,5.30
2022-12-01T13:50:52.515Z,5.30
2022-12-01T13:53:53.887Z,5.20
2022-12-01T13:56:59.584Z,5.10
2022-12-01T14:00:06.037Z,5.10
2022-12-01T14:03:13.707Z,5.00
2022-12-01T14:06:08.621Z,5.00
2022-12-01T14:09:00.636Z,4.90
2022-12-01T14:11:57.049Z,4.90
2022-12-01T14:14:53.848Z,4.90
2022-12-01T14:17:42.506Z,4.90
2022-12-01T14:20:35.145Z,4.80
2022-12-01T14:23:29.301Z,4.80
2022-12-01T14:26:20.965Z,4.70
2022-12-01T14:29:26.118Z,4.80
2022-12-01T14:32:24.335Z,4.80
2022-12-01T14:35:15.305Z,4.80
2022-12-01T14:38:06.686Z,4.70
2022-12-01T14:40:55.536Z,4.70
2022-12-01T14:44:03.358Z,4.70
2022-12-01T14:46:54.497Z,4.70
2022-12-01T14:49:45.372Z,4.60
2022-12-01T14:52:36.601Z,4.60
2022-12-01T14:55:26.241Z,4.70
2022-12-01T14:58:17.375Z,4.70
2022-12-01T15:01:08.325Z,4.60
2022-12-01T15:03:59.000Z,4.60
2022-12-01T15:06:48.372Z,4.60
2022-12-01T15:09:37.834Z,4.60
2022-12-01T15:12:28.499Z,4.50
2022-12-01T15:15:21.036Z,4.50
2022-12-01T15:18:23.145Z,4.50
2022-12-01T15:21:12.846Z,4.50
2022-12-01T15:24:02.546Z,4.50
2022-12-01T15:26:51.772Z,4.50
2022-12-01T15:29:45.471Z,4.50
2022-12-01T15:32:37.747Z,4.40
2022-12-01T15:35:27.180Z,4.40
2022-12-01T15:38:18.115Z,4.40
2022-12-01T15:44:20.462Z,4.50
2022-12-01T15:47:26.936Z,4.30
2022-12-01T15:50:29.623Z,4.30
2022-12-01T15:53:24.914Z,4.30
2022-12-01T15:56:13.445Z,4.30
2022-12-01T15:59:04.335Z,4.30
2022-12-01T16:01:52.323Z,4.30
2022-12-01T16:04:40.332Z,4.30
2022-12-01T16:07:57.209Z,4.30
2022-12-01T16:10:41.315Z,4.30
2022-12-01T16:13:47.208Z,4.30
2022-12-01T16:16:39.960Z,4.20
2022-12-01T16:19:34.219Z,4.20
2022-12-01T16:22:22.899Z,4.20
2022-12-01T16:25:18.217Z,4.20
2022-12-01T16:28:07.415Z,4.30
2022-12-01T16:30:55.427Z,4.30
2022-12-01T16:33:43.307Z,4.30
2022-12-01T16:36:31.400Z,4.20
2022-12-01T16:39:19.608Z,4.30
2022-12-01T16:42:11.749Z,4.20
2022-12-01T16:45:02.743Z,4.20
2022-12-01T16:47:50.848Z,4.20
2022-12-01T16:50:39.309Z,4.20
2022-12-01T16:53:27.268Z,4.20
2022-12-01T16:56:15.406Z,4.20
2022-12-01T16:59:05.008Z,4.20
2022-12-01T17:01:52.934Z,4.20
2022-12-01T17:04:40.909Z,4.20
2022-12-01T17:07:28.825Z,4.20
2022-12-01T17:10:17.671Z,4.20
2022-12-01T17:13:05.674Z,4.20
2022-12-01T17:15:55.574Z,4.20
2022-12-01T17:18:43.668Z,4.10
2022-12-01T17:21:34.521Z,4.10
2022-12-01T17:24:22.514Z,4.10
2022-12-01T17:27:10.416Z,4.10
2022-12-01T17:29:59.104Z,4.10
2022-12-01T17:32:48.359Z,4.10
2022-12-01T17:35:36.307Z,4.10
2022-12-01T17:38:24.408Z,4.10
2022-12-01T17:41:13.082Z,4.10
2022-12-01T17:44:02.700Z,4.10
2022-12-01T17:46:50.697Z,4.10
2022-12-01T17:49:40.290Z,4.10
2022-12-01T17:52:29.365Z,4.10
2022-12-01T17:55:17.532Z,4.10
2022-12-01T17:58:05.494Z,4.10
2022-12-01T18:00:54.160Z,4.10
2022-12-01T18:03:42.217Z,4.10
2022-12-01T18:06:31.493Z,4.10
2022-12-01T18:09:19.426Z,4.10
2022-12-01T18:12:07.536Z,4.10
2022-12-01T18:14:55.415Z,4.10
2022-12-01T18:17:43.305Z,4.10
2022-12-01T18:20:31.211Z,4.10
2022-12-01T18:23:20.617Z,4.10
2022-12-01T18:26:15.127Z,4.10
2022-12-01T18:29:05.800Z,4.10
2022-12-01T18:31:54.472Z,4.10
2022-12-01T18:34:42.439Z,4.10
2022-12-01T18:37:30.400Z,4.10
2022-12-01T18:40:19.803Z,4.10
2022-12-01T18:43:07.734Z,4.10
2022-12-01T18:45:55.769Z,4.10
2022-12-01T18:48:45.025Z,4.20
2022-12-01T18:51:34.877Z,4.20
2022-12-01T18:54:22.792Z,4.20
2022-12-01T18:57:12.067Z,4.10
2022-12-01T18:59:59.948Z,4.10
2022-12-01T19:02:50.108Z,4.10
2022-12-01T19:05:38.576Z,4.10
2022-12-01T19:08:26.592Z,4.10
2022-12-01T19:11:14.574Z,4.10
2022-12-01T19:14:04.453Z,4.10
2022-12-01T19:16:55.866Z,4.10
2022-12-01T19:19:43.763Z,4.10
2022-12-01T19:22:32.614Z,4.10
2022-12-01T19:25:21.045Z,4.10
2022-12-01T19:28:09.191Z,4.10
2022-12-01T19:30:58.492Z,4.10
2022-12-01T19:33:47.435Z,4.10
2022-12-01T19:36:35.386Z,4.10
2022-12-01T19:39:23.598Z,4.10
2022-12-01T19:42:11.524Z,4.10
2022-12-01T19:44:59.693Z,4.20
2022-12-01T19:47:49.043Z,4.20
2022-12-01T19:50:37.413Z,4.20
2022-12-01T19:53:29.130Z,4.20
2022-12-01T19:56:22.578Z,4.20
2022-12-01T19:59:11.693Z,4.20
2022-12-01T20:01:59.642Z,4.20
2022-12-01T20:04:49.249Z,4.20
2022-12-01T20:07:37.426Z,4.20
2022-12-01T20:10:25.454Z,4.20
2022-12-01T20:13:13.365Z,4.20
2022-12-01T20:16:06.548Z,4.10
2022-12-01T20:18:55.137Z,4.10
2022-12-01T20:21:44.398Z,4.10
2022-12-01T20:24:32.447Z,4.10
2022-12-01T20:27:22.171Z,4.10
2022-12-01T20:30:10.813Z,4.10
2022-12-01T20:32:58.808Z,4.10
2022-12-01T20:35:46.679Z,4.10
2022-12-01T20:38:36.283Z,4.10
2022-12-01T20:41:24.265Z,4.10
2022-12-01T20:44:12.772Z,4.10
2022-12-01T20:47:00.725Z,4.10
2022-12-01T20:49:48.641Z,4.10
2022-12-01T20:52:39.803Z,4.10
2022-12-01T20:55:29.192Z,4.10
2022-12-01T20:58:19.120Z,4.10
2022-12-01T21:01:10.888Z,4.10
2022-12-01T21:03:58.874Z,4.10
2022-12-01T21:06:46.886Z,4.20
2022-12-01T21:09:34.974Z,4.20
2022-12-01T21:12:41.751Z,4.10
2022-12-01T21:15:31.365Z,4.10
2022-12-01T21:18:22.725Z,4.10
2022-12-01T21:21:22.209Z,4.10
2022-12-01T21:24:13.461Z,4.10
2022-12-01T21:27:03.136Z,4.10
2022-12-01T21:29:52.444Z,4.10
2022-12-01T21:32:44.095Z,4.10
2022-12-01T21:35:32.249Z,4.10
2022-12-01T21:38:22.170Z,4.10
2022-12-01T21:41:16.752Z,4.10
2022-12-01T21:44:09.025Z,4.10
2022-12-01T21:46:58.995Z,4.10
2022-12-01T21:49:48.789Z,4.10
2022-12-01T21:52:40.148Z,4.10
2022-12-01T21:55:32.869Z,4.00
2022-12-01T21:58:25.127Z,4.00
2022-12-01T22:01:16.293Z,4.10
2022-12-01T22:04:11.949Z,4.10
2022-12-01T22:06:59.875Z,4.10
2022-12-01T22:09:47.891Z,4.10
2022-12-01T22:12:35.897Z,4.10
2022-12-01T22:15:33.247Z,4.10
2022-12-01T22:18:23.223Z,4.10
2022-12-01T22:21:33.458Z,4.10
2022-12-01T22:24:24.801Z,4.10
2022-12-01T22:27:22.361Z,4.10
2022-12-01T22:30:14.801Z,4.10
2022-12-01T22:33:04.288Z,4.20
2022-12-01T22:35:53.304Z,4.20
2022-12-01T22:38:42.544Z,4.10
2022-12-01T22:41:30.480Z,4.10
2022-12-01T22:44:18.496Z,4.10
2022-12-01T22:47:06.475Z,4.10
2022-12-01T22:49:54.797Z,4.10
2022-12-01T22:52:42.711Z,4.10
2022-12-01T22:55:32.060Z,4.10
2022-12-01T22:58:22.407Z,4.10
2022-12-01T23:01:19.042Z,4.10
2022-12-01T23:04:21.304Z,4.10
2022-12-01T23:07:09.997Z,4.10
2022-12-01T23:10:00.531Z,4.10
2022-12-01T23:12:50.747Z,4.20
2022-12-01T23:15:39.762Z,4.20
2022-12-01T23:18:29.603Z,4.20
2022-12-01T23:21:17.484Z,4.20
2022-12-01T23:24:06.144Z,4.10
2022-12-01T23:26:54.069Z,4.10
2022-12-01T23:29:43.305Z,4.10
2022-12-01T23:32:31.183Z,4.20
2022-12-01T23:35:19.375Z,4.20
2022-12-01T23:38:10.194Z,4.10
2022-12-01T23:41:00.028Z,4.10
2022-12-01T23:43:48.090Z,4.10
2022-12-01T23:46:37.620Z,4.10
2022-12-01T23:49:26.851Z,4.00
2022-12-01T23:52:16.970Z,4.00
2022-12-01T23:55:12.635Z,4.10
2022-12-01T23:58:01.810Z,4.00
